Redding (RDD/KRDD)

Map

Destinations

Information

Location
Redding, CA
Local Time
23:28 / 11:28 pm
GMT Time
07:28 / 7:28 am
Gates
3
No FAA reported delays
METAR KRDD 200653Z AUTO 34004KT 10SM CLR 03/02 A3010 RMK AO2 SLP193 T00280017
TAF KRDD 200538Z 2006/2106 34004KT P6SM SKC FM201900 34010G15KT P6SM SCT250 FM210200 VRB03KT P6SM OVC200